Roslyn Estates, New York
Current Conditions -  °F | °C
As of 8:51 PM on Saturday 25 Oct 2014 (Local Time) from KLGA Reporting Station
Scattered Clouds Scattered Clouds  
Wind Chill: 64°   Ceiling: Unl
Heat Index: 64°   Visibility: 10mi
Dew Point: 43°   Wind: 14mph
Humidity: 46%   Direction: 220°SW
Pressure: 29.61"   Gusts: NA
Location:  40.8044°N, 73.641°W
Report Text: KLGA 260051Z 22012KT 10SM FEW075 SCT250 18/06 A2961 RMK AO2 SLP027 T01780061
Loading
Personal Weather Stations






























Interactive Weather Map
Tropical Storm Tracking
New forecast layout! Learn more

10-Day Weather Forecast

Advertisements
Track Severe Weather on mobile